createdAt,value
2019-03-10T00:00:20.201Z,67.60
2019-03-10T00:01:20.216Z,68.22
2019-03-10T00:02:20.202Z,68.32
2019-03-10T00:03:20.200Z,68.32
2019-03-10T00:04:20.143Z,67.70
2019-03-10T00:05:20.133Z,68.12
2019-03-10T00:06:20.122Z,68.01
2019-03-10T00:07:20.116Z,67.70
2019-03-10T00:08:20.142Z,68.43
2019-03-10T00:09:20.083Z,67.91
2019-03-10T00:10:20.111Z,68.01
2019-03-10T00:11:20.067Z,68.01
2019-03-10T00:12:20.101Z,68.01
2019-03-10T00:13:20.100Z,67.80
2019-03-10T00:14:20.062Z,67.70
2019-03-10T00:15:20.022Z,68.43
2019-03-10T00:16:20.063Z,68.01
2019-03-10T00:17:19.997Z,68.22
2019-03-10T00:18:19.995Z,68.22
2019-03-10T00:19:20.020Z,67.91
2019-03-10T00:20:20.000Z,68.01
2019-03-10T00:21:19.953Z,68.12
2019-03-10T00:22:19.967Z,68.22
2019-03-10T00:23:19.936Z,68.43
2019-03-10T00:24:19.990Z,68.01
2019-03-10T00:25:19.918Z,68.63
2019-03-10T00:26:21.018Z,68.53
2019-03-10T00:27:19.925Z,69.04
2019-03-10T00:28:19.887Z,68.32
2019-03-10T00:29:19.867Z,68.04
2019-03-10T00:30:19.895Z,68.43
2019-03-10T00:31:19.851Z,68.94
2019-03-10T00:32:19.831Z,69.15
2019-03-10T00:33:19.821Z,68.53
2019-03-10T00:34:19.815Z,68.25
2019-03-10T00:35:19.857Z,68.56
2019-03-10T00:36:19.831Z,68.87
2019-03-10T00:37:19.781Z,68.84
2019-03-10T00:38:19.783Z,68.63
2019-03-10T00:39:19.764Z,68.84
2019-03-10T00:40:19.807Z,69.15
2019-03-10T00:41:19.737Z,68.98
2019-03-10T00:42:19.724Z,69.15
2019-03-10T00:43:19.715Z,69.15
2019-03-10T00:44:19.699Z,69.35
2019-03-10T00:45:19.696Z,68.84
2019-03-10T00:46:19.722Z,69.56
2019-03-10T00:47:19.692Z,69.25
2019-03-10T00:48:19.655Z,69.25
2019-03-10T00:49:19.645Z,69.25
2019-03-10T00:50:19.640Z,69.25
2019-03-10T00:51:19.662Z,69.15
2019-03-10T00:52:19.616Z,69.35
2019-03-10T00:53:19.605Z,69.04
2019-03-10T00:54:19.603Z,69.35
2019-03-10T00:55:19.583Z,69.04
2019-03-10T00:56:19.626Z,69.04
2019-03-10T00:57:19.622Z,69.35
2019-03-10T00:58:19.549Z,69.60
2019-03-10T00:59:19.543Z,69.46
2019-03-10T01:00:19.529Z,69.35
2019-03-10T01:01:19.512Z,69.87
2019-03-10T01:02:19.540Z,69.80
2019-03-10T01:03:19.491Z,69.90
2019-03-10T01:04:19.480Z,69.98
2019-03-10T01:05:19.475Z,69.90
2019-03-10T01:06:19.462Z,69.98
2019-03-10T01:07:19.492Z,69.77
2019-03-10T01:08:19.438Z,69.77
2019-03-10T01:09:19.428Z,69.98
2019-03-10T01:10:19.433Z,70.08
2019-03-10T01:11:19.407Z,69.87
2019-03-10T01:12:19.449Z,70.29
2019-03-10T01:13:19.382Z,69.98
2019-03-10T01:14:19.402Z,69.98
2019-03-10T01:15:19.365Z,70.53
2019-03-10T01:16:19.394Z,70.39
2019-03-10T01:17:19.380Z,70.50
2019-03-10T01:18:19.340Z,70.53
2019-03-10T01:19:19.319Z,70.50
2019-03-10T01:20:19.306Z,70.50
2019-03-10T01:21:19.300Z,70.73
2019-03-10T01:22:19.288Z,70.63
2019-03-10T01:23:19.311Z,70.94
2019-03-10T01:24:19.260Z,70.73
2019-03-10T01:25:19.299Z,70.94
2019-03-10T01:26:19.246Z,70.84
2019-03-10T01:27:19.227Z,70.94
2019-03-10T01:28:19.220Z,71.04
2019-03-10T01:29:19.247Z,71.25
2019-03-10T01:30:19.193Z,71.15
2019-03-10T01:31:19.188Z,71.04
2019-03-10T01:32:19.177Z,70.63
2019-03-10T01:33:19.209Z,71.15
2019-03-10T01:34:19.199Z,71.04
2019-03-10T01:35:19.146Z,71.15
2019-03-10T01:36:19.132Z,71.15
2019-03-10T01:37:19.121Z,71.15
2019-03-10T01:38:19.111Z,71.25
2019-03-10T01:39:19.153Z,70.84
2019-03-10T01:40:19.083Z,71.25
2019-03-10T01:41:19.078Z,71.15
2019-03-10T01:42:19.061Z,71.15
2019-03-10T01:43:19.057Z,70.94
2019-03-10T01:44:19.039Z,71.25
2019-03-10T01:45:19.076Z,70.94
2019-03-10T01:46:19.017Z,71.25
2019-03-10T01:47:19.008Z,71.25
2019-03-10T01:48:18.995Z,71.56
2019-03-10T01:49:18.989Z,71.36
2019-03-10T01:50:19.022Z,71.56
2019-03-10T01:51:18.973Z,71.56
2019-03-10T01:52:18.953Z,71.46
2019-03-10T01:53:25.633Z,71.25
2019-03-10T01:54:19.969Z,71.56
2019-03-10T01:55:18.960Z,71.56
2019-03-10T01:56:18.909Z,71.56
2019-03-10T01:57:18.910Z,71.46
2019-03-10T01:58:18.886Z,71.53
2019-03-10T01:59:18.885Z,71.46
2019-03-10T02:00:18.908Z,71.77
2019-03-10T02:01:18.860Z,71.22
2019-03-10T02:02:25.228Z,71.53
2019-03-10T02:03:19.832Z,71.67
2019-03-10T02:04:18.819Z,71.67
2019-03-10T02:05:18.891Z,71.46
2019-03-10T02:06:18.831Z,71.43
2019-03-10T02:07:18.796Z,71.33
2019-03-10T02:08:18.783Z,71.46
2019-03-10T02:09:18.773Z,71.22
2019-03-10T02:10:18.767Z,71.56
2019-03-10T02:11:18.788Z,71.53
2019-03-10T02:12:18.759Z,71.46
2019-03-10T02:13:18.731Z,71.46
2019-03-10T02:14:18.715Z,71.88
2019-03-10T02:15:18.701Z,71.88
2019-03-10T02:16:18.688Z,71.36
2019-03-10T02:17:18.720Z,71.46
2019-03-10T02:18:18.673Z,72.08
2019-03-10T02:19:18.664Z,71.63
2019-03-10T02:20:18.651Z,71.77
2019-03-10T02:21:18.694Z,71.67
2019-03-10T02:22:18.624Z,71.67
2019-03-10T02:23:18.627Z,71.56
2019-03-10T02:24:23.636Z,71.88
2019-03-10T02:25:19.633Z,71.56
2019-03-10T02:26:18.622Z,71.88
2019-03-10T02:27:18.574Z,71.63
2019-03-10T02:28:18.601Z,71.98
2019-03-10T02:29:18.563Z,72.29
2019-03-10T02:30:18.557Z,71.88
2019-03-10T02:31:18.572Z,71.77
2019-03-10T02:32:18.556Z,71.77
2019-03-10T02:33:18.501Z,71.98
2019-03-10T02:34:18.490Z,71.88
2019-03-10T02:35:18.559Z,72.19
2019-03-10T02:36:18.474Z,72.71
2019-03-10T02:37:18.506Z,72.19
2019-03-10T02:38:18.476Z,72.08
2019-03-10T02:39:18.485Z,71.98
2019-03-10T02:40:18.432Z,72.29
2019-03-10T02:41:18.420Z,72.29
2019-03-10T02:42:18.411Z,71.98
2019-03-10T02:43:18.448Z,71.98
2019-03-10T02:44:18.389Z,72.08
2019-03-10T02:45:18.370Z,72.08
2019-03-10T02:46:18.385Z,72.19
2019-03-10T02:47:18.362Z,72.01
2019-03-10T02:48:18.380Z,72.39
2019-03-10T02:49:18.329Z,73.11
2019-03-10T02:50:18.321Z,72.08
2019-03-10T02:51:18.322Z,72.32
2019-03-10T02:52:18.331Z,72.60
2019-03-10T02:53:18.343Z,72.60
2019-03-10T02:54:18.275Z,71.98
2019-03-10T02:55:18.259Z,72.50
2019-03-10T02:56:18.249Z,71.98
2019-03-10T02:57:18.247Z,72.63
2019-03-10T02:58:18.315Z,71.88
2019-03-10T02:59:18.216Z,72.01
2019-03-10T03:00:18.209Z,72.29
2019-03-10T03:01:18.212Z,71.98
2019-03-10T03:02:18.201Z,72.19
2019-03-10T03:03:18.170Z,71.91
2019-03-10T03:04:18.250Z,71.88
2019-03-10T03:05:18.157Z,71.67
2019-03-10T03:06:18.186Z,71.77
2019-03-10T03:07:18.132Z,71.80
2019-03-10T03:08:18.204Z,72.08
2019-03-10T03:09:18.110Z,71.59
2019-03-10T03:10:18.097Z,71.67
2019-03-10T03:11:18.112Z,71.67
2019-03-10T03:12:18.085Z,71.77
2019-03-10T03:13:18.060Z,71.88
2019-03-10T03:14:18.115Z,71.56
2019-03-10T03:15:18.044Z,71.25
2019-03-10T03:16:18.033Z,71.25
2019-03-10T03:17:18.018Z,71.25
2019-03-10T03:18:18.009Z,71.56
2019-03-10T03:19:18.047Z,71.15
2019-03-10T03:20:17.983Z,71.56
2019-03-10T03:21:17.979Z,71.46
2019-03-10T03:22:17.967Z,71.46
2019-03-10T03:23:17.970Z,71.56
2019-03-10T03:24:17.941Z,71.46
2019-03-10T03:25:17.977Z,71.36
2019-03-10T03:26:17.969Z,71.56
2019-03-10T03:27:17.953Z,71.36
2019-03-10T03:28:17.896Z,71.77
2019-03-10T03:29:17.917Z,71.15
2019-03-10T03:30:17.918Z,71.56
2019-03-10T03:31:17.863Z,71.56
2019-03-10T03:32:18.637Z,71.49
2019-03-10T03:33:17.843Z,71.98
2019-03-10T03:34:17.835Z,71.88
2019-03-10T03:35:17.833Z,71.67
2019-03-10T03:36:17.823Z,71.88
2019-03-10T03:37:17.837Z,71.77
2019-03-10T03:38:17.785Z,71.98
2019-03-10T03:39:17.854Z,71.88
2019-03-10T03:40:17.770Z,72.19
2019-03-10T03:41:17.754Z,71.88
2019-03-10T03:42:17.743Z,72.19
2019-03-10T03:43:17.735Z,72.29
2019-03-10T03:44:17.727Z,72.19
2019-03-10T03:45:17.755Z,72.19
2019-03-10T03:46:17.758Z,72.60
2019-03-10T03:47:17.715Z,72.71
2019-03-10T03:48:17.719Z,72.60
2019-03-10T03:49:17.668Z,72.60
2019-03-10T03:50:17.660Z,72.60
2019-03-10T03:51:17.666Z,73.11
2019-03-10T03:52:17.682Z,73.11
2019-03-10T03:53:17.630Z,72.50
2019-03-10T03:54:17.621Z,73.01
2019-03-10T03:55:17.609Z,73.32
2019-03-10T03:56:17.596Z,72.88
2019-03-10T03:57:17.625Z,72.81
2019-03-10T03:58:17.588Z,73.32
2019-03-10T03:59:17.565Z,73.08
2019-03-10T04:00:17.549Z,73.43
2019-03-10T04:01:17.534Z,73.53
2019-03-10T04:02:17.527Z,73.29
2019-03-10T04:03:17.567Z,73.39
2019-03-10T04:04:17.545Z,73.71
2019-03-10T04:05:17.501Z,73.81
2019-03-10T04:06:17.479Z,73.60
2019-03-10T04:07:17.476Z,73.81
2019-03-10T04:08:17.471Z,73.81
2019-03-10T04:09:17.492Z,73.74
2019-03-10T04:10:17.433Z,73.91
2019-03-10T04:11:17.441Z,73.84
2019-03-10T04:12:17.413Z,73.81
2019-03-10T04:13:17.414Z,73.74
2019-03-10T04:14:17.433Z,73.29
2019-03-10T04:15:17.445Z,73.22
2019-03-10T04:16:17.368Z,73.60
2019-03-10T04:17:17.362Z,73.81
2019-03-10T04:18:17.356Z,73.19
2019-03-10T04:19:17.372Z,74.32
2019-03-10T04:20:17.372Z,74.22
2019-03-10T04:21:17.330Z,74.32
2019-03-10T04:22:17.307Z,74.22
2019-03-10T04:23:17.298Z,74.36
2019-03-10T04:24:17.288Z,74.36
2019-03-10T04:25:17.271Z,74.22
2019-03-10T04:26:17.305Z,74.74
2019-03-10T04:27:17.254Z,74.74
2019-03-10T04:28:17.277Z,74.53
2019-03-10T04:29:17.233Z,75.05
2019-03-10T04:30:17.219Z,75.05
2019-03-10T04:31:17.240Z,75.05
2019-03-10T04:32:17.198Z,74.77
2019-03-10T04:33:17.180Z,75.09
2019-03-10T04:34:17.174Z,74.84
2019-03-10T04:35:17.165Z,74.95
2019-03-10T04:36:17.194Z,75.05
2019-03-10T04:37:17.139Z,74.84
2019-03-10T04:38:17.143Z,74.84
2019-03-10T04:39:17.115Z,74.95
2019-03-10T04:40:17.108Z,75.36
2019-03-10T04:41:17.097Z,75.26
2019-03-10T04:42:17.126Z,74.95
2019-03-10T04:43:17.079Z,75.15
2019-03-10T04:44:17.060Z,74.84
2019-03-10T04:45:17.098Z,74.74
2019-03-10T04:46:17.038Z,74.95
2019-03-10T04:47:17.065Z,75.12
2019-03-10T04:48:17.016Z,75.26
2019-03-10T04:49:17.016Z,75.15
2019-03-10T04:50:16.998Z,75.15
2019-03-10T04:51:17.002Z,74.50
2019-03-10T04:52:17.039Z,74.81
2019-03-10T04:53:16.968Z,74.71
2019-03-10T04:54:17.000Z,74.60
2019-03-10T04:55:16.939Z,74.81
2019-03-10T04:56:16.932Z,74.60
2019-03-10T04:57:16.923Z,75.02
2019-03-10T04:58:16.990Z,74.91
2019-03-10T04:59:16.904Z,74.71
2019-03-10T05:00:16.889Z,74.81
2019-03-10T05:01:16.874Z,75.12
2019-03-10T05:02:16.866Z,74.50
2019-03-10T05:03:16.854Z,74.71
2019-03-10T05:04:16.883Z,74.91
2019-03-10T05:05:16.829Z,74.60
2019-03-10T05:06:16.822Z,75.02
2019-03-10T05:07:16.806Z,74.71
2019-03-10T05:08:16.857Z,74.81
2019-03-10T05:09:16.797Z,74.91
2019-03-10T05:10:16.778Z,74.81
2019-03-10T05:11:16.764Z,74.81
2019-03-10T05:12:16.756Z,74.91
2019-03-10T05:13:16.742Z,74.81
2019-03-10T05:14:16.776Z,74.91
2019-03-10T05:15:16.721Z,75.12
2019-03-10T05:16:16.773Z,74.40
2019-03-10T05:17:16.706Z,74.91
2019-03-10T05:18:16.694Z,74.81
2019-03-10T05:19:16.720Z,74.81
2019-03-10T05:20:16.662Z,75.12
2019-03-10T05:21:16.689Z,75.12
2019-03-10T05:22:16.640Z,75.22
2019-03-10T05:23:16.638Z,75.02
2019-03-10T05:24:16.666Z,75.32
2019-03-10T05:25:16.612Z,75.22
2019-03-10T05:26:16.625Z,75.12
2019-03-10T05:27:16.648Z,75.63
2019-03-10T05:28:16.578Z,75.43
2019-03-10T05:29:16.568Z,75.22
2019-03-10T05:30:16.556Z,76.26
2019-03-10T05:31:16.546Z,75.32
2019-03-10T05:32:16.535Z,75.63
2019-03-10T05:33:16.557Z,76.26
2019-03-10T05:34:16.543Z,75.32
2019-03-10T05:35:16.524Z,76.26
2019-03-10T05:36:16.483Z,76.26
2019-03-10T05:37:16.479Z,76.26
2019-03-10T05:38:16.501Z,76.05
2019-03-10T05:39:16.450Z,76.26
2019-03-10T05:40:16.439Z,76.36
2019-03-10T05:41:16.478Z,76.15
2019-03-10T05:42:16.419Z,76.15
2019-03-10T05:43:16.412Z,75.53
2019-03-10T05:44:16.423Z,76.32
2019-03-10T05:45:16.389Z,76.32
2019-03-10T05:46:16.414Z,76.15
2019-03-10T05:47:16.370Z,76.05
2019-03-10T05:48:16.350Z,76.01
2019-03-10T05:49:16.396Z,76.01
2019-03-10T05:50:16.375Z,76.12
2019-03-10T05:51:16.322Z,76.32
2019-03-10T05:52:16.309Z,76.12
2019-03-10T05:53:16.326Z,76.32
2019-03-10T05:54:16.321Z,76.22
2019-03-10T05:55:16.273Z,76.12
2019-03-10T05:56:16.273Z,76.15
2019-03-10T05:57:16.308Z,75.91
2019-03-10T05:58:16.244Z,76.12
2019-03-10T05:59:16.298Z,76.32
2019-03-10T06:00:16.220Z,76.32
2019-03-10T06:01:16.232Z,76.12
2019-03-10T06:02:16.219Z,76.01
2019-03-10T06:03:16.187Z,76.01
2019-03-10T06:04:16.182Z,76.22
2019-03-10T06:05:16.207Z,76.22
2019-03-10T06:06:16.154Z,76.01
2019-03-10T06:07:16.163Z,76.12
2019-03-10T06:08:16.136Z,76.01
2019-03-10T06:09:16.127Z,76.22
2019-03-10T06:10:16.143Z,76.12
2019-03-10T06:11:16.094Z,76.01
2019-03-10T06:12:16.083Z,76.12
2019-03-10T06:13:16.073Z,76.32
2019-03-10T06:14:16.124Z,76.12
2019-03-10T06:15:16.055Z,76.22
2019-03-10T06:16:16.043Z,76.22
2019-03-10T06:17:16.030Z,76.12
2019-03-10T06:18:16.055Z,76.26
2019-03-10T06:19:16.015Z,76.26
2019-03-10T06:20:16.002Z,76.05
2019-03-10T06:21:16.077Z,76.46
2019-03-10T06:22:15.979Z,76.46
2019-03-10T06:23:15.971Z,76.36
2019-03-10T06:24:15.993Z,76.36
2019-03-10T06:25:15.948Z,76.26
2019-03-10T06:26:15.928Z,76.36
2019-03-10T06:27:15.927Z,76.15
2019-03-10T06:28:15.963Z,76.26
2019-03-10T06:29:15.909Z,76.26
2019-03-10T06:30:15.895Z,76.46
2019-03-10T06:31:15.890Z,76.36
2019-03-10T06:32:15.867Z,76.57
2019-03-10T06:33:15.852Z,76.26
2019-03-10T06:34:15.913Z,76.36
2019-03-10T06:35:15.837Z,76.26
2019-03-10T06:36:15.835Z,76.57
2019-03-10T06:37:15.807Z,76.46
2019-03-10T06:38:15.807Z,76.46
2019-03-10T06:39:15.809Z,76.67
2019-03-10T06:40:15.818Z,76.26
2019-03-10T06:41:15.771Z,76.88
2019-03-10T06:42:15.780Z,76.26
2019-03-10T06:43:15.739Z,76.26
2019-03-10T06:44:15.733Z,76.26
2019-03-10T06:45:15.761Z,76.43
2019-03-10T06:46:15.711Z,76.22
2019-03-10T06:47:15.787Z,76.32
2019-03-10T06:48:15.692Z,75.60
2019-03-10T06:49:15.724Z,75.57
2019-03-10T06:50:15.680Z,76.22
2019-03-10T06:51:15.661Z,75.09
2019-03-10T06:52:15.645Z,75.57
2019-03-10T06:53:15.627Z,74.84
2019-03-10T06:54:15.661Z,74.95
2019-03-10T06:55:15.662Z,74.74
2019-03-10T06:56:15.635Z,74.95
2019-03-10T06:57:15.588Z,74.53
2019-03-10T06:58:15.571Z,74.53
2019-03-10T06:59:15.571Z,74.84
2019-03-10T07:00:15.561Z,74.53
2019-03-10T07:01:15.584Z,74.12
2019-03-10T07:02:15.579Z,73.98
2019-03-10T07:03:15.522Z,74.22
2019-03-10T07:04:15.509Z,73.16
2019-03-10T07:05:15.493Z,73.88
2019-03-10T07:06:15.489Z,74.40
2019-03-10T07:07:15.519Z,73.67
2019-03-10T07:08:15.459Z,73.47
2019-03-10T07:09:15.454Z,73.77
2019-03-10T07:10:15.441Z,73.57
2019-03-10T07:11:15.431Z,74.19
2019-03-10T07:12:15.502Z,73.77
2019-03-10T07:13:15.449Z,73.88
2019-03-10T07:14:15.398Z,73.67
2019-03-10T07:15:15.388Z,73.57
2019-03-10T07:16:15.375Z,73.77
2019-03-10T07:17:15.360Z,73.26
2019-03-10T07:18:15.391Z,73.12
2019-03-10T07:19:15.341Z,73.54
2019-03-10T07:20:15.325Z,72.71
2019-03-10T07:21:15.319Z,73.12
2019-03-10T07:22:15.351Z,73.47
2019-03-10T07:23:15.291Z,73.67
2019-03-10T07:24:15.357Z,73.43
2019-03-10T07:25:15.275Z,73.64
2019-03-10T07:26:15.259Z,72.61
2019-03-10T07:27:15.305Z,73.12
2019-03-10T07:28:15.245Z,73.85
2019-03-10T07:29:15.229Z,73.88
2019-03-10T07:30:15.218Z,73.02
2019-03-10T07:31:15.220Z,72.61
2019-03-10T07:32:15.197Z,72.71
2019-03-10T07:33:15.246Z,72.81
2019-03-10T07:34:15.173Z,73.16
2019-03-10T07:35:15.178Z,73.43
2019-03-10T07:36:15.157Z,73.33
2019-03-10T07:37:15.212Z,73.54
2019-03-10T07:38:15.149Z,72.91
2019-03-10T07:39:15.130Z,73.12
2019-03-10T07:40:15.115Z,73.22
2019-03-10T07:41:15.141Z,73.12
2019-03-10T07:42:15.087Z,73.02
2019-03-10T07:43:15.084Z,73.43
2019-03-10T07:44:15.073Z,72.81
2019-03-10T07:45:15.056Z,72.81
2019-03-10T07:46:15.113Z,72.91
2019-03-10T07:47:15.073Z,72.50
2019-03-10T07:48:15.023Z,71.95
2019-03-10T07:49:15.012Z,72.36
2019-03-10T07:50:15.007Z,72.67
2019-03-10T07:51:15.051Z,72.09
2019-03-10T07:52:20.160Z,72.09
2019-03-10T07:53:15.969Z,72.26
2019-03-10T07:54:14.964Z,72.36
2019-03-10T07:55:14.978Z,71.64
2019-03-10T07:56:14.941Z,71.54
2019-03-10T07:57:15.001Z,71.54
2019-03-10T07:58:14.917Z,71.02
2019-03-10T07:59:14.902Z,71.44
2019-03-10T08:00:14.908Z,71.20
2019-03-10T08:01:14.887Z,71.12
2019-03-10T08:02:14.865Z,71.20
2019-03-10T08:03:14.902Z,70.68
2019-03-10T08:04:14.847Z,70.89
2019-03-10T08:05:14.843Z,70.89
2019-03-10T08:06:14.826Z,71.20
2019-03-10T08:07:14.850Z,70.78
2019-03-10T08:08:14.844Z,70.99
2019-03-10T08:09:14.826Z,70.99
2019-03-10T08:10:14.784Z,71.09
2019-03-10T08:11:14.766Z,70.57
2019-03-10T08:12:14.752Z,70.68
2019-03-10T08:13:14.741Z,70.68
2019-03-10T08:14:14.788Z,70.89
2019-03-10T08:15:14.721Z,70.68
2019-03-10T08:16:14.702Z,70.13
2019-03-10T08:17:14.706Z,70.23
2019-03-10T08:18:14.698Z,69.75
2019-03-10T08:19:14.718Z,70.17
2019-03-10T08:20:14.663Z,70.23
2019-03-10T08:21:14.651Z,70.23
2019-03-10T08:22:14.636Z,70.23
2019-03-10T08:23:14.680Z,69.72
2019-03-10T08:24:14.615Z,69.72
2019-03-10T08:25:14.645Z,69.89
2019-03-10T08:26:14.596Z,69.51
2019-03-10T08:27:14.601Z,69.41
2019-03-10T08:28:14.572Z,69.41
2019-03-10T08:29:14.594Z,68.48
2019-03-10T08:30:14.556Z,68.76
2019-03-10T08:31:14.537Z,68.90
2019-03-10T08:32:14.521Z,69.07
2019-03-10T08:33:14.509Z,68.96
2019-03-10T08:34:14.541Z,68.86
2019-03-10T08:35:14.487Z,68.86
2019-03-10T08:36:14.486Z,68.83
2019-03-10T08:37:14.469Z,68.11
2019-03-10T08:38:14.468Z,67.70
2019-03-10T08:39:14.461Z,67.29
2019-03-10T08:40:14.493Z,67.39
2019-03-10T08:41:14.430Z,67.49
2019-03-10T08:42:20.113Z,67.80
2019-03-10T08:43:15.401Z,66.87
2019-03-10T08:44:14.402Z,66.67
2019-03-10T08:45:14.472Z,66.77
2019-03-10T08:46:14.422Z,65.43
2019-03-10T08:47:14.358Z,65.43
2019-03-10T08:48:14.359Z,65.53
2019-03-10T08:49:14.342Z,66.15
2019-03-10T08:50:14.341Z,66.77
2019-03-10T08:51:14.311Z,65.84
2019-03-10T08:52:14.374Z,65.19
2019-03-10T08:53:14.290Z,65.53
2019-03-10T08:54:14.294Z,65.40
2019-03-10T08:55:14.266Z,65.64
2019-03-10T08:56:14.264Z,65.40
2019-03-10T08:57:14.312Z,64.89
2019-03-10T08:58:14.238Z,64.78
2019-03-10T08:59:14.226Z,63.96
2019-03-10T09:00:14.235Z,63.72
2019-03-10T09:01:14.206Z,63.85
2019-03-10T09:02:14.192Z,64.58
2019-03-10T09:03:14.221Z,63.96
2019-03-10T09:04:14.219Z,64.24
2019-03-10T09:05:14.163Z,64.03
2019-03-10T09:06:14.189Z,63.72
2019-03-10T09:07:14.182Z,63.52
2019-03-10T09:08:14.134Z,63.52
2019-03-10T09:09:14.110Z,63.93
2019-03-10T09:10:14.146Z,63.52
2019-03-10T09:11:14.092Z,63.31
2019-03-10T09:12:14.213Z,63.62
2019-03-10T09:13:14.090Z,63.72
2019-03-10T09:14:14.163Z,63.42
2019-03-10T09:15:14.044Z,63.31
2019-03-10T09:16:14.143Z,63.10
2019-03-10T09:17:14.027Z,63.10
2019-03-10T09:18:14.038Z,62.15
2019-03-10T09:19:14.043Z,63.10
2019-03-10T09:20:14.001Z,63.10
2019-03-10T09:21:13.986Z,63.59
2019-03-10T09:22:13.971Z,61.84
2019-03-10T09:23:13.969Z,61.74
2019-03-10T09:24:14.005Z,61.12
2019-03-10T09:25:13.992Z,62.05
2019-03-10T09:26:13.932Z,61.94
2019-03-10T09:27:13.921Z,61.94
2019-03-10T09:28:13.902Z,61.63
2019-03-10T09:29:13.903Z,61.43
2019-03-10T09:30:13.937Z,61.74
2019-03-10T09:31:13.880Z,62.05
2019-03-10T09:32:13.855Z,61.53
2019-03-10T09:33:13.849Z,60.71
2019-03-10T09:34:13.840Z,61.02
2019-03-10T09:35:13.875Z,60.71
2019-03-10T09:36:13.819Z,60.71
2019-03-10T09:37:13.813Z,60.81
2019-03-10T09:38:13.787Z,61.02
2019-03-10T09:39:13.798Z,60.81
2019-03-10T09:40:13.770Z,60.91
2019-03-10T09:41:13.795Z,61.22
2019-03-10T09:42:13.742Z,60.89
2019-03-10T09:43:13.772Z,60.71
2019-03-10T09:44:13.745Z,60.30
2019-03-10T09:45:13.728Z,60.27
2019-03-10T09:46:13.734Z,59.75
2019-03-10T09:47:13.749Z,59.65
2019-03-10T09:48:13.726Z,59.96
2019-03-10T09:49:13.700Z,59.86
2019-03-10T09:50:13.655Z,59.75
2019-03-10T09:51:13.640Z,59.73
2019-03-10T09:52:13.630Z,59.24
2019-03-10T09:53:13.622Z,59.42
2019-03-10T09:54:13.676Z,59.03
2019-03-10T09:55:13.605Z,59.45
2019-03-10T09:56:13.642Z,58.83
2019-03-10T09:57:13.576Z,59.22
2019-03-10T09:58:13.634Z,58.70
2019-03-10T09:59:13.553Z,59.22
2019-03-10T10:00:13.540Z,59.22
2019-03-10T10:01:13.576Z,59.01
2019-03-10T10:02:13.530Z,59.22
2019-03-10T10:03:13.546Z,59.42
2019-03-10T10:04:13.504Z,59.01
2019-03-10T10:05:13.493Z,59.01
2019-03-10T10:06:13.510Z,59.31
2019-03-10T10:07:13.467Z,59.63
2019-03-10T10:08:13.489Z,59.63
2019-03-10T10:09:13.484Z,59.73
2019-03-10T10:10:13.426Z,59.75
2019-03-10T10:11:13.416Z,59.55
2019-03-10T10:12:13.920Z,60.37
2019-03-10T10:13:13.439Z,60.37
2019-03-10T10:14:13.385Z,60.27
2019-03-10T10:15:13.379Z,60.27
2019-03-10T10:16:13.368Z,60.37
2019-03-10T10:17:13.359Z,60.03
2019-03-10T10:18:13.374Z,60.55
2019-03-10T10:19:13.328Z,60.24
2019-03-10T10:20:13.316Z,60.14
2019-03-10T10:21:13.309Z,60.03
2019-03-10T10:22:13.329Z,60.47
2019-03-10T10:23:13.286Z,60.65
2019-03-10T10:24:13.305Z,60.24
2019-03-10T10:25:13.275Z,60.27
2019-03-10T10:26:13.257Z,60.65
2019-03-10T10:27:13.242Z,60.75
2019-03-10T10:28:13.228Z,60.78
2019-03-10T10:29:13.250Z,60.55
2019-03-10T10:30:13.270Z,60.55
2019-03-10T10:31:14.071Z,60.75
2019-03-10T10:32:13.181Z,60.14
2019-03-10T10:33:13.173Z,60.24
2019-03-10T10:34:13.201Z,60.55
2019-03-10T10:35:13.248Z,60.96
2019-03-10T10:36:13.198Z,60.24
2019-03-10T10:37:13.126Z,60.65
2019-03-10T10:38:18.660Z,60.65
2019-03-10T10:39:14.110Z,60.45
2019-03-10T10:40:13.159Z,60.65
2019-03-10T10:41:13.077Z,61.17
2019-03-10T10:42:13.069Z,60.86
2019-03-10T10:43:13.112Z,60.45
2019-03-10T10:44:13.086Z,60.65
2019-03-10T10:45:13.031Z,60.93
2019-03-10T10:46:13.067Z,60.11
2019-03-10T10:47:13.025Z,60.42
2019-03-10T10:48:13.006Z,60.73
2019-03-10T10:49:12.998Z,60.31
2019-03-10T10:50:13.950Z,60.11
2019-03-10T10:51:12.980Z,60.63
2019-03-10T10:52:12.999Z,60.63
2019-03-10T10:53:12.976Z,60.73
2019-03-10T10:54:12.935Z,60.75
2019-03-10T10:55:12.950Z,60.86
2019-03-10T10:56:12.961Z,61.17
2019-03-10T10:57:12.919Z,61.88
2019-03-10T10:58:12.894Z,61.99
2019-03-10T10:59:12.880Z,62.51
2019-03-10T11:00:12.868Z,62.19
2019-03-10T11:01:12.900Z,62.19
2019-03-10T11:02:12.840Z,62.71
2019-03-10T11:03:12.836Z,63.53
2019-03-10T11:04:12.821Z,63.64
2019-03-10T11:05:12.810Z,63.56
2019-03-10T11:06:12.862Z,63.67
2019-03-10T11:07:12.841Z,63.97
2019-03-10T11:08:12.774Z,63.56
2019-03-10T11:09:12.768Z,64.18
2019-03-10T11:10:12.750Z,64.69
2019-03-10T11:11:12.780Z,64.93
2019-03-10T11:12:12.746Z,65.20
2019-03-10T11:13:12.768Z,65.41
2019-03-10T11:14:12.725Z,65.92
2019-03-10T11:15:12.737Z,66.24
2019-03-10T11:16:12.686Z,66.75
2019-03-10T11:17:12.721Z,67.54
2019-03-10T11:18:12.666Z,67.85
2019-03-10T11:19:12.672Z,67.44
2019-03-10T11:20:12.649Z,67.85
2019-03-10T11:21:12.630Z,67.85
2019-03-10T11:22:12.621Z,66.61
2019-03-10T11:23:12.644Z,67.54
2019-03-10T11:24:12.607Z,65.25
2019-03-10T11:25:12.582Z,66.20
2019-03-10T11:26:12.574Z,66.17
2019-03-10T11:27:12.565Z,66.41
2019-03-10T11:28:12.599Z,66.79
2019-03-10T11:29:12.550Z,66.41
2019-03-10T11:30:12.531Z,67.13
2019-03-10T11:31:14.028Z,67.75
2019-03-10T11:32:12.523Z,63.97
2019-03-10T11:33:13.482Z,63.87
2019-03-10T11:34:12.539Z,63.69
2019-03-10T11:35:12.475Z,63.59
2019-03-10T11:36:12.466Z,63.90
2019-03-10T11:37:12.452Z,64.65
2019-03-10T11:38:12.451Z,65.06
2019-03-10T11:39:12.430Z,65.26
2019-03-10T11:40:12.470Z,66.09
2019-03-10T11:41:12.434Z,66.50
2019-03-10T11:42:12.392Z,66.61
2019-03-10T11:43:12.381Z,66.40
2019-03-10T11:44:12.436Z,66.71
2019-03-10T11:45:12.375Z,67.22
2019-03-10T11:46:12.360Z,67.84
2019-03-10T11:47:12.345Z,68.39
2019-03-10T11:48:12.327Z,67.57
2019-03-10T11:49:12.387Z,67.25
2019-03-10T11:50:14.936Z,67.43
2019-03-10T11:51:12.299Z,68.39
2019-03-10T11:52:12.303Z,68.39
2019-03-10T11:53:19.271Z,68.90
2019-03-10T11:54:13.317Z,69.73
2019-03-10T11:55:12.320Z,69.93
2019-03-10T11:56:12.241Z,69.42
2019-03-10T11:57:12.231Z,70.24
2019-03-10T11:58:12.221Z,70.42
2019-03-10T11:59:12.216Z,70.31
2019-03-10T12:00:12.265Z,70.93
2019-03-10T12:01:12.192Z,71.55
2019-03-10T12:02:16.260Z,71.65
2019-03-10T12:03:12.166Z,69.59
2019-03-10T12:04:12.150Z,70.14
2019-03-10T12:05:12.188Z,70.93
2019-03-10T12:06:12.131Z,69.18
2019-03-10T12:07:12.126Z,69.38
2019-03-10T12:08:12.104Z,69.49
2019-03-10T12:09:12.092Z,66.43
2019-03-10T12:10:12.082Z,67.05
2019-03-10T12:11:12.116Z,68.08
2019-03-10T12:12:12.063Z,66.33
2019-03-10T12:13:12.050Z,65.92
2019-03-10T12:14:12.042Z,66.43
2019-03-10T12:15:12.044Z,66.02
2019-03-10T12:16:12.058Z,67.57
2019-03-10T12:17:12.015Z,67.66
2019-03-10T12:18:12.002Z,67.25
2019-03-10T12:19:11.993Z,67.66
2019-03-10T12:20:11.987Z,66.94
2019-03-10T12:21:12.021Z,66.81
2019-03-10T12:22:11.955Z,66.91
2019-03-10T12:23:11.946Z,65.99
2019-03-10T12:24:11.936Z,65.61
2019-03-10T12:25:11.920Z,66.02
2019-03-10T12:26:11.912Z,65.40
2019-03-10T12:27:11.939Z,66.40
2019-03-10T12:28:11.938Z,66.71
2019-03-10T12:29:11.876Z,66.64
2019-03-10T12:30:11.865Z,67.15
2019-03-10T12:31:11.849Z,66.87
2019-03-10T12:32:11.855Z,67.87
2019-03-10T12:33:11.870Z,67.66
2019-03-10T12:34:11.818Z,67.36
2019-03-10T12:35:11.885Z,69.45
2019-03-10T12:36:11.818Z,70.34
2019-03-10T12:37:11.790Z,66.94
2019-03-10T12:38:11.822Z,66.43
2019-03-10T12:39:11.766Z,67.87
2019-03-10T12:40:11.750Z,68.66
2019-03-10T12:41:11.746Z,67.66
2019-03-10T12:42:11.735Z,70.00
2019-03-10T12:43:11.763Z,72.09
2019-03-10T12:44:11.710Z,69.93
2019-03-10T12:45:11.696Z,70.83
2019-03-10T12:46:11.685Z,68.66
2019-03-10T12:47:11.682Z,68.39
2019-03-10T12:48:11.668Z,67.25
2019-03-10T12:49:11.694Z,67.66
2019-03-10T12:50:11.675Z,68.49
2019-03-10T12:51:11.680Z,66.64
2019-03-10T12:52:11.623Z,66.84